Time;durP1;ratioP1;P1;durP2;ratioP2;P2;SDS_P1;SDS_P2;PMS_P1;PMS_P2;Temp;Humidity;BMP_temperature;BMP_pressure;BME280_temperature;BME280_humidity;BME280_pressure;Samples;Min_cycle;Max_cycle;Signal;HPM_P1;HPM_P2
2022/10/30 00:01:56;;;;;;;;;;;;;;;14.28;90.17;96933.97;5061717;28;19954;-74
2022/10/30 00:04:22;;;;;;;;;;;;;;;14.30;90.69;96937.16;5066090;28;20019;-73
2022/10/30 00:06:48;;;;;;;;;;;;;;;14.31;89.69;96933.47;5066223;28;20016;-73
2022/10/30 00:09:14;;;;;;;;;;;;;;;14.33;88.07;96918.22;5064995;28;19962;-74
2022/10/30 00:11:40;;;;;;;;;;;;;;;14.36;88.19;96923.06;5067974;28;20311;-74
2022/10/30 00:14:06;;;;;;;;;;;;;;;14.37;89.34;96922.00;5061625;28;19956;-74
2022/10/30 00:16:32;;;;;;;;;;;;;;;14.36;89.51;96919.59;5063089;28;19964;-74
2022/10/30 00:18:58;;;;;;;;;;;;;;;14.37;88.75;96913.31;5064994;28;19976;-74
2022/10/30 00:21:24;;;;;;;;;;;;;;;14.36;86.90;96904.59;5063891;28;19970;-74
2022/10/30 00:23:51;;;;;;;;;;;;;;;14.36;88.37;96909.88;5063934;28;19963;-74
2022/10/30 00:26:17;;;;;;;;;;;;;;;14.37;89.10;96906.19;5068583;28;19957;-74
2022/10/30 00:28:43;;;;;;;;;;;;;;;14.34;89.14;96911.94;5063930;28;19947;-74
2022/10/30 00:31:09;;;;;;;;;;;;;;;14.36;89.55;96916.97;5062979;28;19956;-74
2022/10/30 00:33:35;;;;;;;;;;;;;;;14.36;89.40;96922.22;5064074;28;19954;-74
2022/10/30 00:36:01;;;;;;;;;;;;;;;14.35;89.50;96916.16;5060397;28;19962;-74
2022/10/30 00:38:26;;;;;;;;;;;;;;;14.36;88.27;96914.31;5068934;28;20445;-74
2022/10/30 00:40:52;;;;;;;;;;;;;;;14.34;87.16;96897.91;5064043;28;19955;-74
2022/10/30 00:43:29;;;;;;;;;;;;;;;14.32;89.25;96914.00;5064854;28;19962;-74
2022/10/30 00:45:57;;;;;;;;;;;;;;;14.32;89.72;96921.09;5064835;28;19948;-74
2022/10/30 00:48:24;;;;;;;;;;;;;;;14.30;89.37;96918.69;5060096;28;20028;-74
2022/10/30 00:50:52;;;;;;;;;;;;;;;14.28;89.44;96922.56;5069986;28;19964;-74
2022/10/30 00:53:19;;;;;;;;;;;;;;;14.21;89.12;96912.16;5063199;28;19957;-74
2022/10/30 00:55:56;;;;;;;;;;;;;;;14.18;89.53;96920.53;5062537;28;19957;-74
2022/10/30 00:58:28;;;;;;;;;;;;;;;14.14;89.65;96916.75;5060626;28;19964;-74
2022/10/30 01:00:56;;;;;;;;;;;;;;;14.10;90.07;96926.13;5059896;28;20309;-74
2022/10/30 01:03:23;;;;;;;;;;;;;;;14.06;90.47;96925.00;5066988;28;20411;-74
2022/10/30 01:05:51;;;;;;;;;;;;;;;14.02;90.42;96916.72;5067633;28;19954;-74
2022/10/30 01:08:17;;;;;;;;;;;;;;;13.97;90.63;96917.41;5056452;28;19983;-73
2022/10/30 01:10:44;;;;;;;;;;;;;;;13.94;90.78;96922.31;5062113;28;19983;-74
2022/10/30 01:13:10;;;;;;;;;;;;;;;13.91;90.74;96918.31;5070394;28;19955;-74
2022/10/30 01:15:39;;;;;;;;;;;;;;;13.88;90.85;96924.06;5062830;28;19954;-74
2022/10/30 01:18:14;;;;;;;;;;;;;;;13.84;91.08;96915.00;5064210;28;19954;-73
2022/10/30 01:20:39;;;;;;;;;;;;;;;13.81;90.98;96912.78;5064892;28;19963;-74
2022/10/30 01:23:11;;;;;;;;;;;;;;;13.78;91.39;96913.25;5055792;28;19958;-74
2022/10/30 01:26:07;;;;;;;;;;;;;;;13.75;91.50;96911.06;5067106;28;19971;-74
2022/10/30 01:28:50;;;;;;;;;;;;;;;13.73;91.72;96908.69;4960141;28;20354;-74
2022/10/30 01:31:27;;;;;;;;;;;;;;;13.72;91.90;96906.25;5062708;28;19949;-73
2022/10/30 01:34:12;;;;;;;;;;;;;;;13.70;92.03;96905.69;5061301;28;20457;-74
2022/10/30 01:36:54;;;;;;;;;;;;;;;13.69;92.16;96907.53;5060707;28;19963;-74
2022/10/30 01:39:23;;;;;;;;;;;;;;;13.69;92.33;96899.63;5054558;28;19971;-73
2022/10/30 01:41:48;;;;;;;;;;;;;;;13.66;92.50;96900.03;5061009;28;19951;-74
2022/10/30 01:44:17;;;;;;;;;;;;;;;13.64;92.70;96896.84;5064117;28;19957;-74
2022/10/30 01:46:49;;;;;;;;;;;;;;;13.62;92.94;96893.63;5060885;28;19950;-73
2022/10/30 01:49:22;;;;;;;;;;;;;;;13.62;92.92;96892.81;5059248;28;19951;-73
2022/10/30 01:52:04;;;;;;;;;;;;;;;13.62;93.22;96898.09;5069056;28;20395;-73
2022/10/30 01:54:48;;;;;;;;;;;;;;;13.61;92.96;96889.41;5065588;28;19958;-74
2022/10/30 01:57:26;;;;;;;;;;;;;;;13.62;93.17;96895.47;5052402;28;19961;-73
2022/10/30 02:00:05;;;;;;;;;;;;;;;13.59;93.02;96888.81;5059909;28;19966;-74
2022/10/30 02:02:32;;;;;;;;;;;;;;;13.57;92.99;96880.34;5059859;28;19964;-75
2022/10/30 02:04:58;;;;;;;;;;;;;;;13.55;92.79;96892.94;5068662;28;19960;-74
2022/10/30 02:07:24;;;;;;;;;;;;;;;13.53;93.05;96882.59;5065724;28;19980;-74
2022/10/30 02:09:51;;;;;;;;;;;;;;;13.53;92.97;96887.88;5058247;28;19955;-74
2022/10/30 02:12:18;;;;;;;;;;;;;;;13.53;93.44;96889.72;5063206;28;19962;-75
2022/10/30 02:14:46;;;;;;;;;;;;;;;13.52;93.61;96880.19;5062909;28;19953;-74
2022/10/30 02:17:12;;;;;;;;;;;;;;;13.49;93.48;96881.44;5041493;28;19950;-73
2022/10/30 02:19:38;;;;;;;;;;;;;;;13.50;93.40;96879.59;5063226;28;19976;-74
2022/10/30 02:22:04;;;;;;;;;;;;;;;13.47;93.61;96883.50;5049465;28;20009;-73
2022/10/30 02:24:30;;;;;;;;;;;;;;;13.46;93.31;96878.44;5063693;28;19960;-74
2022/10/30 02:26:56;;;;;;;;;;;;;;;13.43;93.63;96877.06;5041164;28;19955;-74
2022/10/30 02:29:22;;;;;;;;;;;;;;;13.43;93.64;96876.28;5062719;28;19969;-75
2022/10/30 02:31:48;;;;;;;;;;;;;;;13.39;93.84;96875.91;5048175;28;19948;-73
2022/10/30 02:34:15;;;;;;;;;;;;;;;13.36;93.70;96869.28;5060454;28;20067;-73
2022/10/30 02:36:41;;;;;;;;;;;;;;;13.36;94.20;96879.00;5066634;28;19962;-74
2022/10/30 02:39:07;;;;;;;;;;;;;;;13.35;94.48;96880.81;5067190;28;20358;-74
2022/10/30 02:41:32;;;;;;;;;;;;;;;13.34;94.51;96873.16;5066987;28;19961;-75
2022/10/30 02:43:58;;;;;;;;;;;;;;;13.34;94.59;96873.16;5066278;28;19952;-73
2022/10/30 02:46:24;;;;;;;;;;;;;;;13.33;94.93;96877.63;5062106;28;19949;-73
2022/10/30 02:48:50;;;;;;;;;;;;;;;13.34;94.85;96870.53;5066776;28;20123;-73
2022/10/30 02:51:16;;;;;;;;;;;;;;;13.34;95.46;96870.53;5071031;28;20314;-74
2022/10/30 02:53:42;;;;;;;;;;;;;;;13.35;95.50;96874.75;5068400;28;20352;-74
2022/10/30 02:56:09;;;;;;;;;;;;;;;13.33;95.24;96864.47;5063051;28;20411;-74
2022/10/30 02:58:35;;;;;;;;;;;;;;;13.34;95.73;96867.91;5062052;28;19949;-75
2022/10/30 03:01:19;;;;;;;;;;;;;;;13.33;95.28;96868.91;5068129;28;19982;-74
2022/10/30 03:03:45;;;;;;;;;;;;;;;13.33;94.80;96871.53;5056396;28;19976;-73
2022/10/30 03:06:14;;;;;;;;;;;;;;;13.32;94.83;96864.69;5053642;28;19950;-73
2022/10/30 03:08:40;;;;;;;;;;;;;;;13.30;94.72;96867.53;5063579;28;20330;-74
2022/10/30 03:11:09;;;;;;;;;;;;;;;13.31;94.41;96861.25;5062956;28;19958;-76
2022/10/30 03:13:36;;;;;;;;;;;;;;;13.27;94.45;96865.34;5065389;28;19956;-74
2022/10/30 03:16:02;;;;;;;;;;;;;;;13.25;94.53;96871.84;5063974;28;19955;-74
2022/10/30 03:18:29;;;;;;;;;;;;;;;13.19;94.27;96865.66;5066569;28;19955;-74
2022/10/30 03:20:55;;;;;;;;;;;;;;;13.18;94.34;96872.72;5065132;28;19948;-73
2022/10/30 03:23:21;;;;;;;;;;;;;;;13.18;94.64;96872.72;5067939;28;19946;-74
2022/10/30 03:25:50;;;;;;;;;;;;;;;13.17;95.08;96871.13;5069955;28;20002;-74
2022/10/30 03:28:16;;;;;;;;;;;;;;;13.17;95.13;96873.75;5060299;28;19943;-73
2022/10/30 03:30:42;;;;;;;;;;;;;;;13.16;95.46;96880.03;5063767;28;19958;-74
2022/10/30 03:33:07;;;;;;;;;;;;;;;13.17;95.79;96884.28;5069594;28;19964;-74
2022/10/30 03:35:34;;;;;;;;;;;;;;;13.17;95.43;96878.25;5068220;28;19954;-74
2022/10/30 03:38:00;;;;;;;;;;;;;;;13.17;95.13;96878.25;5065643;28;20081;-74
2022/10/30 03:40:26;;;;;;;;;;;;;;;13.15;94.61;96877.66;5063013;28;20341;-74
2022/10/30 03:42:52;;;;;;;;;;;;;;;13.13;94.75;96879.72;5062863;28;19962;-73
2022/10/30 03:45:17;;;;;;;;;;;;;;;13.11;95.06;96885.19;5069753;28;20002;-74
2022/10/30 03:47:43;;;;;;;;;;;;;;;13.11;95.07;96881.75;5066302;28;19954;-74
2022/10/30 03:50:09;;;;;;;;;;;;;;;13.10;94.84;96882.78;5063218;28;19958;-73
2022/10/30 03:52:35;;;;;;;;;;;;;;;13.09;94.90;96879.34;5060389;28;19998;-74
2022/10/30 03:55:01;;;;;;;;;;;;;;;13.09;94.83;96887.25;5070191;28;19999;-73
2022/10/30 03:57:27;;;;;;;;;;;;;;;13.05;94.44;96883.44;5065579;28;20375;-74
2022/10/30 03:59:52;;;;;;;;;;;;;;;13.03;95.13;96888.13;5054970;28;19973;-74
2022/10/30 04:02:18;;;;;;;;;;;;;;;13.00;94.88;96888.59;5063846;28;19981;-74
2022/10/30 04:04:44;;;;;;;;;;;;;;;12.97;94.81;96896.91;5064629;28;19958;-73
2022/10/30 04:07:10;;;;;;;;;;;;;;;12.94;94.43;96892.09;5060955;28;20036;-74
2022/10/30 04:09:36;;;;;;;;;;;;;;;12.91;94.39;96884.63;5066565;28;19956;-74
2022/10/30 04:12:02;;;;;;;;;;;;;;;12.85;93.97;96885.50;5067670;28;19999;-74
2022/10/30 04:14:28;;;;;;;;;;;;;;;12.82;93.95;96885.97;5063798;28;19994;-74
2022/10/30 04:16:53;;;;;;;;;;;;;;;12.78;94.25;96888.22;5065496;28;20019;-74
2022/10/30 04:19:19;;;;;;;;;;;;;;;12.76;94.19;96880.53;5059585;28;19980;-74
2022/10/30 04:21:46;;;;;;;;;;;;;;;12.75;95.36;96888.69;5064963;28;19961;-74
2022/10/30 04:24:15;;;;;;;;;;;;;;;12.74;95.19;96892.31;5068757;28;19959;-73
2022/10/30 04:26:40;;;;;;;;;;;;;;;12.73;95.68;96890.72;5066985;28;19962;-73
2022/10/30 04:29:06;;;;;;;;;;;;;;;12.71;95.28;96883.06;5064691;28;20303;-73
2022/10/30 04:31:32;;;;;;;;;;;;;;;12.70;94.86;96883.25;5059387;28;20384;-74
2022/10/30 04:33:58;;;;;;;;;;;;;;;12.67;94.56;96883.72;5061067;28;19954;-75
2022/10/30 04:36:29;;;;;;;;;;;;;;;12.65;95.05;96878.66;5066898;28;19958;-73
2022/10/30 04:38:55;;;;;;;;;;;;;;;12.61;94.40;96877.50;5066591;28;19955;-74
2022/10/30 04:41:21;;;;;;;;;;;;;;;12.57;94.37;96879.75;5063081;28;20306;-74
2022/10/30 04:43:50;;;;;;;;;;;;;;;12.54;95.14;96887.31;5063343;28;19968;-74
2022/10/30 04:46:16;;;;;;;;;;;;;;;12.52;95.31;96884.88;5060562;28;20410;-74
2022/10/30 04:48:42;;;;;;;;;;;;;;;12.51;95.18;96883.25;5064066;28;19961;-74
2022/10/30 04:51:10;;;;;;;;;;;;;;;12.48;94.93;96881.09;5064627;28;19956;-74
2022/10/30 04:53:37;;;;;;;;;;;;;;;12.46;95.43;96884.97;5057574;28;19950;-74
2022/10/30 04:56:03;;;;;;;;;;;;;;;12.46;96.04;96883.13;5060611;28;19959;-74
2022/10/30 04:58:29;;;;;;;;;;;;;;;12.46;95.77;96885.75;5062761;28;19952;-74
2022/10/30 05:00:59;;;;;;;;;;;;;;;12.45;95.26;96878.06;5051887;28;20062;-74
2022/10/30 05:03:25;;;;;;;;;;;;;;;12.44;95.60;96892.25;5065801;28;19950;-74
2022/10/30 05:06:02;;;;;;;;;;;;;;;12.42;95.47;96883.78;5041748;28;19958;-73
2022/10/30 05:08:28;;;;;;;;;;;;;;;12.41;95.61;96882.16;5061145;28;19968;-73
2022/10/30 05:10:54;;;;;;;;;;;;;;;12.40;95.61;96876.09;5066435;28;19964;-73
2022/10/30 05:13:20;;;;;;;;;;;;;;;12.39;95.48;96885.81;5065728;28;19951;-74
2022/10/30 05:15:46;;;;;;;;;;;;;;;12.36;95.12;96867.03;5059501;28;19948;-74
2022/10/30 05:18:12;;;;;;;;;;;;;;;12.33;94.82;96878.81;5063332;28;20037;-74
2022/10/30 05:20:38;;;;;;;;;;;;;;;12.30;95.06;96871.34;5066625;28;19975;-73
2022/10/30 05:23:04;;;;;;;;;;;;;;;12.29;95.44;96874.22;5064754;28;19990;-73
2022/10/30 05:25:30;;;;;;;;;;;;;;;12.27;95.79;96876.25;5060891;28;19960;-74
2022/10/30 05:27:57;;;;;;;;;;;;;;;12.25;95.72;96873.84;5062757;28;19963;-74
2022/10/30 05:30:23;;;;;;;;;;;;;;;12.24;95.82;96876.66;5068678;28;19959;-73
2022/10/30 05:32:48;;;;;;;;;;;;;;;12.24;95.61;96874.88;5061039;28;19979;-74
2022/10/30 05:35:14;;;;;;;;;;;;;;;12.22;95.05;96876.91;5062975;28;20012;-73
2022/10/30 05:37:40;;;;;;;;;;;;;;;12.19;95.06;96872.06;5063564;28;19962;-73
2022/10/30 05:40:06;;;;;;;;;;;;;;;12.15;94.52;96866.44;5063630;28;20006;-73
2022/10/30 05:42:32;;;;;;;;;;;;;;;12.09;94.10;96869.13;5062776;28;20422;-73
2022/10/30 05:44:58;;;;;;;;;;;;;;;12.04;94.35;96875.03;5045073;28;19959;-73
2022/10/30 05:47:24;;;;;;;;;;;;;;;12.01;94.87;96878.13;5061417;28;19955;-73
2022/10/30 05:49:50;;;;;;;;;;;;;;;11.98;94.94;96873.28;5061184;28;20379;-73
2022/10/30 05:52:15;;;;;;;;;;;;;;;11.94;95.13;96882.63;5063474;28;20001;-73
2022/10/30 05:54:41;;;;;;;;;;;;;;;11.92;95.38;96882.81;5046738;28;19960;-73
2022/10/30 05:57:07;;;;;;;;;;;;;;;11.91;95.28;96888.31;5059108;28;20010;-73
2022/10/30 05:59:33;;;;;;;;;;;;;;;11.89;95.63;96879.84;5060519;28;19966;-73
2022/10/30 06:01:59;;;;;;;;;;;;;;;11.89;95.54;96879.84;5046426;28;20428;-73
2022/10/30 06:04:25;;;;;;;;;;;;;;;11.89;95.63;96879.84;5066658;28;19982;-73
2022/10/30 06:06:51;;;;;;;;;;;;;;;11.87;95.21;96879.22;5063025;28;20503;-73
2022/10/30 06:09:16;;;;;;;;;;;;;;;11.86;96.85;96883.66;5064693;28;20346;-73
2022/10/30 06:11:42;;;;;;;;;;;;;;;11.86;95.82;96888.09;5071331;28;19991;-73
2022/10/30 06:14:08;;;;;;;;;;;;;;;11.87;95.97;96895.78;5067114;28;19960;-74
2022/10/30 06:16:34;;;;;;;;;;;;;;;11.86;95.81;96883.66;5057861;28;20415;-74
2022/10/30 06:19:00;;;;;;;;;;;;;;;11.86;95.79;96881.00;5066462;28;20012;-73
2022/10/30 06:21:26;;;;;;;;;;;;;;;11.84;95.68;96887.50;5065879;28;19976;-73
2022/10/30 06:23:51;;;;;;;;;;;;;;;11.84;95.62;96890.13;5068014;28;19958;-73
2022/10/30 06:26:17;;;;;;;;;;;;;;;11.85;95.91;96891.75;5065749;28;20002;-73
2022/10/30 06:28:43;;;;;;;;;;;;;;;11.88;95.57;96894.78;5066214;28;19958;-73
2022/10/30 06:31:09;;;;;;;;;;;;;;;11.92;95.84;96895.16;5060161;28;20009;-73
2022/10/30 06:33:35;;;;;;;;;;;;;;;11.94;95.65;96885.25;5072692;28;20044;-73
2022/10/30 06:36:01;;;;;;;;;;;;;;;12.00;95.63;96886.22;5063815;28;20420;-73
2022/10/30 06:38:27;;;;;;;;;;;;;;;12.03;96.12;96891.81;5049243;28;19972;-73
2022/10/30 06:40:52;;;;;;;;;;;;;;;12.08;95.37;96891.19;5063121;28;20346;-74
2022/10/30 06:43:19;;;;;;;;;;;;;;;12.15;95.12;96892.72;5069299;28;20388;-74
2022/10/30 06:45:45;;;;;;;;;;;;;;;12.23;95.06;96893.47;5066182;28;20280;-73
2022/10/30 06:48:11;;;;;;;;;;;;;;;12.32;94.02;96882.44;5064411;28;20009;-73
2022/10/30 06:50:37;;;;;;;;;;;;;;;12.43;94.01;96890.63;5067167;28;20469;-73
2022/10/30 06:53:03;;;;;;;;;;;;;;;12.54;93.68;96882.84;5064900;28;20352;-73
2022/10/30 06:55:29;;;;;;;;;;;;;;;12.74;93.25;96879.16;5062834;28;19962;-73
2022/10/30 06:57:55;;;;;;;;;;;;;;;12.94;92.35;96876.31;5066793;28;19963;-73
2022/10/30 07:00:21;;;;;;;;;;;;;;;13.10;90.94;96867.78;5068871;28;19977;-73
2022/10/30 07:02:54;;;;;;;;;;;;;;;13.22;90.58;96873.09;5068705;28;19953;-73
2022/10/30 07:05:20;;;;;;;;;;;;;;;13.32;89.22;96862.84;5066149;28;19959;-73
2022/10/30 07:07:46;;;;;;;;;;;;;;;13.37;88.93;96873.50;5061767;28;19978;-73
2022/10/30 07:10:12;;;;;;;;;;;;;;;13.42;89.45;96879.94;5068797;28;19969;-73
2022/10/30 07:12:37;;;;;;;;;;;;;;;13.42;89.09;96870.22;5069029;28;20428;-74
2022/10/30 07:15:03;;;;;;;;;;;;;;;13.38;89.08;96877.75;5060558;28;19958;-73
2022/10/30 07:17:29;;;;;;;;;;;;;;;13.31;88.95;96874.44;5067117;28;19957;-73
2022/10/30 07:19:55;;;;;;;;;;;;;;;13.25;89.37;96885.00;5070402;28;20472;-74
2022/10/30 07:22:21;;;;;;;;;;;;;;;13.17;90.08;96878.25;5044264;28;20320;-73
2022/10/30 07:24:47;;;;;;;;;;;;;;;13.10;90.07;96883.59;5075253;28;20033;-76
2022/10/30 07:27:13;;;;;;;;;;;;;;;13.07;90.49;96891.13;5063387;28;19955;-73
2022/10/30 07:29:38;;;;;;;;;;;;;;;13.03;89.95;96885.50;5066339;28;19961;-73
2022/10/30 07:32:04;;;;;;;;;;;;;;;13.01;90.53;96882.28;5067126;28;19993;-73
2022/10/30 07:34:30;;;;;;;;;;;;;;;13.00;90.77;96889.38;5067353;28;20475;-73
2022/10/30 07:36:56;;;;;;;;;;;;;;;12.98;91.36;96896.69;5066372;28;20060;-73
2022/10/30 07:39:22;;;;;;;;;;;;;;;13.00;91.16;96896.47;5059478;28;20006;-73
2022/10/30 07:41:51;;;;;;;;;;;;;;;13.03;90.49;96889.97;5062794;28;19972;-73
2022/10/30 07:44:17;;;;;;;;;;;;;;;13.06;90.19;96881.59;5070998;28;19955;-74
2022/10/30 07:46:43;;;;;;;;;;;;;;;13.15;90.97;96893.47;5065127;28;20425;-73
2022/10/30 07:49:09;;;;;;;;;;;;;;;13.25;90.60;96887.63;5058157;28;19962;-72
2022/10/30 07:51:35;;;;;;;;;;;;;;;13.34;89.71;96878.44;5069666;28;19957;-73
2022/10/30 07:54:00;;;;;;;;;;;;;;;13.42;89.05;96880.75;5064285;28;20428;-73
2022/10/30 07:56:26;;;;;;;;;;;;;;;13.51;88.38;96875.97;5065117;28;20007;-73
2022/10/30 07:58:52;;;;;;;;;;;;;;;13.63;88.38;96881.25;5061202;28;19960;-75
2022/10/30 08:01:18;;;;;;;;;;;;;;;13.74;87.10;96878.63;5071643;28;20074;-72
2022/10/30 08:03:44;;;;;;;;;;;;;;;13.84;86.53;96874.63;5062474;28;19952;-73
2022/10/30 08:06:10;;;;;;;;;;;;;;;13.90;84.40;96868.44;5061085;28;20346;-73
2022/10/30 08:08:36;;;;;;;;;;;;;;;13.95;85.18;96872.00;5063761;28;19957;-73
2022/10/30 08:11:01;;;;;;;;;;;;;;;14.02;84.60;96870.06;5066480;28;20014;-73
2022/10/30 08:13:27;;;;;;;;;;;;;;;14.12;85.00;96868.69;5068704;28;19983;-73
2022/10/30 08:15:53;;;;;;;;;;;;;;;14.22;85.23;96868.91;5063130;28;20048;-73
2022/10/30 08:18:19;;;;;;;;;;;;;;;14.33;85.42;96872.59;5060684;28;20373;-74
2022/10/30 08:20:49;;;;;;;;;;;;;;;14.43;84.27;96861.44;5066856;28;19985;-73
2022/10/30 08:23:16;;;;;;;;;;;;;;;14.52;84.80;96857.41;5065780;28;19956;-73
2022/10/30 08:25:42;;;;;;;;;;;;;;;14.63;82.88;96856.59;5063580;28;19954;-73
2022/10/30 08:28:10;;;;;;;;;;;;;;;14.70;83.75;96862.56;5063766;28;20403;-73
2022/10/30 08:30:36;;;;;;;;;;;;;;;14.81;83.24;96858.28;5064789;28;19959;-73
2022/10/30 08:33:04;;;;;;;;;;;;;;;14.90;83.08;96856.88;5058406;28;20421;-73
2022/10/30 08:35:31;;;;;;;;;;;;;;;15.01;83.54;96855.22;5047627;28;19961;-73
2022/10/30 08:37:57;;;;;;;;;;;;;;;15.11;83.22;96851.97;5067422;28;19970;-73
2022/10/30 08:40:24;;;;;;;;;;;;;;;15.15;81.59;96838.03;5064559;28;20336;-73
2022/10/30 08:42:50;;;;;;;;;;;;;;;15.20;82.36;96839.97;5059470;28;19953;-73
2022/10/30 08:45:16;;;;;;;;;;;;;;;15.30;82.25;96845.44;5065163;28;19953;-73
2022/10/30 08:47:42;;;;;;;;;;;;;;;15.33;80.79;96833.59;5066737;28;19959;-73
2022/10/30 08:50:08;;;;;;;;;;;;;;;15.36;82.33;96846.34;5061722;28;20015;-73
2022/10/30 08:52:34;;;;;;;;;;;;;;;15.42;81.08;96834.81;5062546;28;19965;-73
2022/10/30 08:55:00;;;;;;;;;;;;;;;15.46;78.48;96817.44;5068602;28;20407;-75
2022/10/30 08:57:26;;;;;;;;;;;;;;;15.49;80.79;96835.44;5063870;28;20017;-73
2022/10/30 08:59:52;;;;;;;;;;;;;;;15.54;79.06;96822.34;5062955;28;19963;-73
2022/10/30 09:02:18;;;;;;;;;;;;;;;15.58;81.20;96843.78;5064276;28;19952;-73
2022/10/30 09:04:44;;;;;;;;;;;;;;;15.63;81.38;96841.22;5065989;28;20001;-73
2022/10/30 09:07:10;;;;;;;;;;;;;;;15.69;81.19;96835.00;5059581;28;19986;-73
2022/10/30 09:09:36;;;;;;;;;;;;;;;15.74;80.71;96829.00;5064264;28;20324;-73
2022/10/30 09:12:02;;;;;;;;;;;;;;;15.82;81.71;96837.31;5065222;28;20016;-73
2022/10/30 09:14:28;;;;;;;;;;;;;;;15.96;80.99;96831.72;5045526;28;20404;-73
2022/10/30 09:16:53;;;;;;;;;;;;;;;16.08;80.78;96834.25;5063999;28;20009;-74
2022/10/30 09:19:19;;;;;;;;;;;;;;;16.16;80.52;96836.50;5062832;28;19966;-73
2022/10/30 09:21:45;;;;;;;;;;;;;;;16.29;79.34;96822.09;5066462;28;20323;-73
2022/10/30 09:24:11;;;;;;;;;;;;;;;16.44;80.34;96828.41;5058309;28;19961;-73
2022/10/30 09:26:37;;;;;;;;;;;;;;;16.52;78.41;96810.47;5065818;28;19965;-73
2022/10/30 09:29:03;;;;;;;;;;;;;;;16.61;79.99;96835.50;5064917;28;19953;-74
2022/10/30 09:31:28;;;;;;;;;;;;;;;16.74;80.93;96840.41;5063725;28;20006;-73
2022/10/30 09:33:54;;;;;;;;;;;;;;;16.93;80.12;96832.16;5056552;28;19957;-73
2022/10/30 09:36:20;;;;;;;;;;;;;;;17.04;79.92;96829.38;5066664;28;20013;-74
2022/10/30 09:38:46;;;;;;;;;;;;;;;17.18;81.10;96844.88;5061402;28;19951;-73
2022/10/30 09:41:12;;;;;;;;;;;;;;;17.32;78.65;96821.41;5066964;28;20357;-75
2022/10/30 09:43:57;;;;;;;;;;;;;;;17.42;79.07;96827.59;5060423;28;19951;-73
2022/10/30 09:46:55;;;;;;;;;;;;;;;17.54;78.86;96824.00;5062572;28;19946;-73
2022/10/30 09:49:36;;;;;;;;;;;;;;;17.59;77.58;96819.50;5025061;28;20025;-73
2022/10/30 09:52:04;;;;;;;;;;;;;;;17.63;77.39;96819.81;5053270;28;20418;-73
2022/10/30 09:54:43;;;;;;;;;;;;;;;17.71;78.65;96829.16;5056228;28;19954;-73
2022/10/30 09:57:18;;;;;;;;;;;;;;;17.79;74.08;96789.69;5066255;28;19960;-73
2022/10/30 09:59:43;;;;;;;;;;;;;;;17.87;74.67;96796.41;5066066;28;19957;-73
2022/10/30 10:02:25;;;;;;;;;;;;;;;17.88;73.69;96786.59;5059169;28;19974;-73
2022/10/30 10:04:55;;;;;;;;;;;;;;;17.88;75.78;96802.53;5059419;28;19956;-73
2022/10/30 10:07:28;;;;;;;;;;;;;;;17.98;75.30;96800.72;5061081;28;20445;-73
2022/10/30 10:09:56;;;;;;;;;;;;;;;18.08;75.33;96805.31;5049798;28;19962;-73
2022/10/30 10:12:27;;;;;;;;;;;;;;;18.23;76.18;96818.66;5062941;28;20437;-73
2022/10/30 10:14:53;;;;;;;;;;;;;;;18.39;76.22;96811.53;5061678;28;19964;-73
2022/10/30 10:17:27;;;;;;;;;;;;;;;18.53;71.40;96777.34;5061809;28;19965;-73
2022/10/30 10:20:00;;;;;;;;;;;;;;;18.62;74.27;96801.56;5064313;28;19953;-74
2022/10/30 10:22:40;;;;;;;;;;;;;;;18.68;74.13;96795.19;5062453;28;20320;-73
2022/10/30 10:25:08;;;;;;;;;;;;;;;18.79;74.39;96793.41;5064785;28;19949;-73
2022/10/30 10:27:43;;;;;;;;;;;;;;;18.93;76.32;96813.09;5057753;28;19961;-73
2022/10/30 10:30:16;;;;;;;;;;;;;;;19.12;75.47;96808.09;5050754;28;19955;-73
2022/10/30 10:32:51;;;;;;;;;;;;;;;19.31;75.78;96802.25;5063032;28;19952;-73
2022/10/30 10:35:17;;;;;;;;;;;;;;;19.51;74.91;96796.16;5059022;28;19979;-73
2022/10/30 10:38:02;;;;;;;;;;;;;;;19.65;69.26;96746.66;5063319;28;19956;-73
2022/10/30 10:40:39;;;;;;;;;;;;;;;19.78;72.20;96769.28;5067475;28;19960;-73
2022/10/30 10:43:23;;;;;;;;;;;;;;;19.84;69.10;96761.03;5060183;28;19956;-74
2022/10/30 10:45:55;;;;;;;;;;;;;;;19.90;70.37;96783.09;5052947;28;19958;-74
2022/10/30 10:48:40;;;;;;;;;;;;;;;20.06;71.61;96797.19;5064066;28;19958;-73
2022/10/30 10:51:15;;;;;;;;;;;;;;;20.23;67.53;96788.88;5043529;28;19962;-73
2022/10/30 10:53:47;;;;;;;;;;;;;;;20.31;65.38;96780.34;5042313;28;19953;-73
2022/10/30 10:56:13;;;;;;;;;;;;;;;20.37;65.56;96792.56;5062102;28;19955;-73
2022/10/30 10:58:55;;;;;;;;;;;;;;;20.38;65.11;96801.34;5070315;28;20054;-74
2022/10/30 11:01:23;;;;;;;;;;;;;;;20.43;64.93;96796.00;5047398;28;19978;-73
2022/10/30 11:03:59;;;;;;;;;;;;;;;20.46;65.24;96788.25;5066043;28;19957;-74
2022/10/30 11:06:26;;;;;;;;;;;;;;;20.55;64.26;96795.69;5060538;28;19975;-73
2022/10/30 11:09:00;;;;;;;;;;;;;;;20.66;67.20;96805.25;5065741;28;19954;-74
2022/10/30 11:11:26;;;;;;;;;;;;;;;20.77;66.00;96801.50;5064953;28;19952;-73
2022/10/30 11:13:53;;;;;;;;;;;;;;;20.88;66.96;96802.22;5065284;28;19955;-73
2022/10/30 11:16:51;;;;;;;;;;;;;;;20.91;65.48;96795.53;5069561;28;19948;-73
2022/10/30 11:19:17;;;;;;;;;;;;;;;20.85;64.53;96790.25;5019698;28;19976;-74
2022/10/30 11:21:46;;;;;;;;;;;;;;;20.78;65.77;96796.94;5065119;28;19971;-73
2022/10/30 11:24:44;;;;;;;;;;;;;;;20.76;66.25;96797.22;5061263;28;19949;-73
2022/10/30 11:27:23;;;;;;;;;;;;;;;20.72;65.21;96798.03;5018727;28;19971;-73
2022/10/30 11:29:55;;;;;;;;;;;;;;;20.67;65.38;96799.66;5066122;28;19964;-75
2022/10/30 11:32:25;;;;;;;;;;;;;;;20.71;67.71;96813.25;5065103;28;19955;-75
2022/10/30 11:35:06;;;;;;;;;;;;;;;20.79;68.77;96811.84;5060245;28;19967;-75
2022/10/30 11:37:33;;;;;;;;;;;;;;;20.88;66.49;96805.69;5065524;28;19976;-75
2022/10/30 11:40:07;;;;;;;;;;;;;;;20.87;67.49;96812.09;5070735;28;19970;-74
2022/10/30 11:42:33;;;;;;;;;;;;;;;20.87;67.61;96804.09;5065749;28;19988;-74
2022/10/30 11:44:59;;;;;;;;;;;;;;;20.91;65.94;96801.66;5058470;28;19989;-75
2022/10/30 11:47:33;;;;;;;;;;;;;;;20.95;67.79;96808.03;5063372;28;19958;-75
2022/10/30 11:50:01;;;;;;;;;;;;;;;21.06;66.79;96806.09;5066580;28;19950;-75
2022/10/30 11:52:27;;;;;;;;;;;;;;;21.14;67.04;96797.53;5071861;28;19953;-75
2022/10/30 11:54:56;;;;;;;;;;;;;;;21.22;67.57;96802.28;5060665;28;20004;-74
2022/10/30 11:57:26;;;;;;;;;;;;;;;21.33;67.09;96797.66;5060525;28;19953;-73
2022/10/30 11:59:53;;;;;;;;;;;;;;;21.44;65.08;96782.41;5051897;28;19961;-76
2022/10/30 12:02:27;;;;;;;;;;;;;;;21.48;66.21;96783.44;5063095;28;20442;-73
2022/10/30 12:04:53;;;;;;;;;;;;;;;21.53;66.16;96790.63;5063444;28;19964;-73
2022/10/30 12:07:30;;;;;;;;;;;;;;;21.60;67.11;96794.53;5022065;28;19990;-74
2022/10/30 12:09:58;;;;;;;;;;;;;;;21.61;66.04;96785.47;5015196;28;19958;-73
2022/10/30 12:12:37;;;;;;;;;;;;;;;21.61;66.67;96784.69;5015146;28;19965;-74
2022/10/30 12:15:17;;;;;;;;;;;;;;;21.63;67.71;96793.22;5015052;28;19961;-73
2022/10/30 12:17:50;;;;;;;;;;;;;;;21.58;65.86;96783.34;5014939;28;19962;-73
2022/10/30 12:20:16;;;;;;;;;;;;;;;21.57;67.80;96789.00;5015127;28;19964;-75
2022/10/30 12:22:42;;;;;;;;;;;;;;;21.56;67.88;96790.84;5014971;28;19975;-73
2022/10/30 12:25:19;;;;;;;;;;;;;;;21.54;68.13;96781.53;5014645;28;20000;-73
2022/10/30 12:27:45;;;;;;;;;;;;;;;21.56;67.35;96774.81;5015357;28;19964;-72
2022/10/30 12:30:14;;;;;;;;;;;;;;;21.58;67.48;96774.56;5014594;28;19962;-73
2022/10/30 12:32:46;;;;;;;;;;;;;;;21.61;67.39;96771.34;5013610;28;19957;-73
2022/10/30 12:35:19;;;;;;;;;;;;;;;21.67;68.52;96784.34;5014885;28;19963;-73
2022/10/30 12:37:48;;;;;;;;;;;;;;;21.73;68.49;96771.72;5014560;28;20409;-73
2022/10/30 12:40:17;;;;;;;;;;;;;;;21.80;67.50;96766.88;5014481;28;20431;-73
2022/10/30 12:43:04;;;;;;;;;;;;;;;21.87;68.28;96774.56;5014321;28;19983;-74
2022/10/30 12:45:36;;;;;;;;;;;;;;;21.92;67.04;96758.47;5014481;28;19955;-73
2022/10/30 12:48:12;;;;;;;;;;;;;;;21.98;66.98;96757.34;5014248;28;19958;-73
2022/10/30 12:50:46;;;;;;;;;;;;;;;22.05;67.56;96751.69;5014277;28;19956;-73
2022/10/30 12:53:15;;;;;;;;;;;;;;;22.10;67.15;96752.41;5014988;28;20413;-73
2022/10/30 12:55:49;;;;;;;;;;;;;;;22.17;65.03;96737.91;5014261;28;19964;-74